Clean Ocean — V7CY7 — position and weather

sailwx.info

Track history (hours):
 
Tides and Currents Weather Stations Pressure Air Temp Water Temp Dewpoint Dewpoint Depression Visibility Wind Speed Wind Dir Waves Ship Positions

Clean Ocean

Last reported at 2018-Feb-23 19:12 UTC. Time now 2018-Feb-24 10:12 UTC.
Position N 37°41' W 009°53'.

Length 289 m; draft 11.8 m.

Type: Tanker. MMSI: 538005350.

Date/timePositionNaut miles runAvg speedWind from/ knotsBaromVisibWave heightAir tempDewpointWater temp
2018-Feb-23 19:12N 37°41' W 009°53'315.8
2018-Feb-23 19:00N 37°44' W 009°54'815.4
2018-Feb-23 18:30N 37°52' W 009°56'815.3
2018-Feb-23 18:00N 37°59' W 009°58'815.3
2018-Feb-23 17:31N 38°07' W 010°01'915.7
2018-Feb-23 16:57N 38°15' W 010°05'715.8
2018-Feb-23 16:30N 38°21' W 010°08'816.1
2018-Feb-23 15:59N 38°30' W 010°11'1116.2
2018-Feb-23 15:20N 38°40' W 010°13'515.9
2018-Feb-23 15:00N 38°45' W 010°13'816.0
2018-Feb-23 14:30N 38°53' W 010°13'816.4
2018-Feb-23 14:00N 39°01' W 010°13'816.1
2018-Feb-23 13:30N 39°09' W 010°12'56114.3
2018-Feb-21 22:22N 46°53' W 002°60'1016.0
2018-Feb-21 21:43N 46°57' W 002°45'415.5
2018-Feb-21 21:28N 46°59' W 002°41'715.6
2018-Feb-21 21:00N 47°03' W 002°32'713.3
2018-Feb-21 20:30N 47°06' W 002°23'3 6.3
2018-Feb-21 20:00N 47°08' W 002°20'510.6
2018-Feb-21 19:30N 47°13' W 002°17'510.2
2018-Feb-21 19:00N 47°16' W 002°11'2 4.5
2018-Feb-21 18:30N 47°18' W 002°09'0 0.0
2018-Feb-21 15:47N 47°18' W 002°09'0 0.0
2018-Feb-21 15:29N 47°18' W 002°09'0 0.0
2018-Feb-21 11:17N 47°18' W 002°09'0 0.0
2018-Feb-21 09:53N 47°18' W 002°09'0 0.0
2018-Feb-21 08:29N 47°18' W 002°09'0 0.0
2018-Feb-21 07:59N 47°18' W 002°09'0 0.0
2018-Feb-21 05:41N 47°18' W 002°09'0 0.0
2018-Feb-21 04:53N 47°18' W 002°09'0 0.0
2018-Feb-21 04:29N 47°18' W 002°09'0 0.0
2018-Feb-21 03:59N 47°18' W 002°09'0 0.0
2018-Feb-21 03:29N 47°18' W 002°09'0 0.0
2018-Feb-21 02:59N 47°18' W 002°09'0 0.0
2018-Feb-21 02:29N 47°18' W 002°09'0 0.0
2018-Feb-21 01:59N 47°18' W 002°09'0 0.0
2018-Feb-21 01:29N 47°18' W 002°09'0 0.0
2018-Feb-21 00:59N 47°18' W 002°09'0 0.0
2018-Feb-21 00:23N 47°18' W 002°09'0 0.0
2018-Feb-20 23:59N 47°18' W 002°09'0 0.0
2018-Feb-20 23:29N 47°18' W 002°09'0 0.0
2018-Feb-20 22:59N 47°18' W 002°09'0 0.0
2018-Feb-20 21:53N 47°18' W 002°09'0 0.0
2018-Feb-20 21:23N 47°18' W 002°09'0 0.0
2018-Feb-20 20:53N 47°18' W 002°09'0 0.0
2018-Feb-20 20:29N 47°18' W 002°09'0 0.0
2018-Feb-20 17:17N 47°18' W 002°09'0 0.0
2018-Feb-20 16:53N 47°18' W 002°09'0 0.0
2018-Feb-20 16:17N 47°18' W 002°09'0 0.0
2018-Feb-20 15:47N 47°18' W 002°09'0 0.0
2018-Feb-20 15:29N 47°18' W 002°09'0 0.0
2018-Feb-20 12:47N 47°18' W 002°09'0 0.0
2018-Feb-20 12:23N 47°18' W 002°09'0 0.0
2018-Feb-20 11:47N 47°18' W 002°09'0 0.0
2018-Feb-20 11:23N 47°18' W 002°09'0 0.0
2018-Feb-20 10:59N 47°18' W 002°09'0 0.0
2018-Feb-20 10:29N 47°18' W 002°09'0 0.0
2018-Feb-20 09:47N 47°18' W 002°09'0 0.0
2018-Feb-20 00:29N 47°18' W 002°09'0 0.0
2018-Feb-19 21:11N 47°18' W 002°09'0 0.0
2018-Feb-19 20:53N 47°18' W 002°09'0 0.0
2018-Feb-19 19:35N 47°18' W 002°09'0 0.0
2018-Feb-19 19:23N 47°18' W 002°09'0 0.0
2018-Feb-19 16:59N 47°18' W 002°09'0 0.2
2018-Feb-19 16:30N 47°18' W 002°08'1 3.0
2018-Feb-19 16:00N 47°17' W 002°10'5 9.2
2018-Feb-19 15:30N 47°14' W 002°15'611.2
2018-Feb-19 15:00N 47°09' W 002°19'3 6.9
2018-Feb-19 14:30N 47°07' W 002°23'1 2.6
2018-Feb-19 14:00N 47°06' W 002°24'2 4.7
2018-Feb-19 13:30N 47°04' W 002°27'3 5.2
2018-Feb-19 13:00N 47°03' W 002°30'3 5.4
2018-Feb-19 12:31N 47°02' W 002°33'3 5.5
2018-Feb-19 12:00N 47°00' W 002°37'3 5.2
2018-Feb-19 11:30N 46°59' W 002°40'4 8.3
2018-Feb-19 10:59N 46°57' W 002°46'  
2018-Feb-17 03:19N 39°17' W 009°57'413.1
2018-Feb-17 03:01N 39°13' W 009°57'612.8
2018-Feb-17 02:31N 39°07' W 009°57'612.8
2018-Feb-17 02:00N 39°00' W 009°57'612.9
2018-Feb-17 01:31N 38°54' W 009°57'713.1
2018-Feb-17 00:59N 38°47' W 009°57'613.0
2018-Feb-17 00:31N 38°41' W 009°57'612.9
2018-Feb-17 00:00N 38°35' W 009°54'612.6
2018-Feb-16 23:31N 38°29' W 009°52'712.4
2018-Feb-16 22:59N 38°22' W 009°49'612.1
2018-Feb-16 22:30N 38°17' W 009°48'611.9
2018-Feb-16 22:00N 38°11' W 009°46'612.6
2018-Feb-16 21:30N 38°05' W 009°45'612.7
2018-Feb-16 21:00N 37°58' W 009°43'812.8
2018-Feb-16 20:22N 37°51' W 009°41'512.3
2018-Feb-16 20:00N 37°46' W 009°40'612.7
2018-Feb-16 19:30N 37°40' W 009°39'7110.2
2018-Feb-16 12:32N 36°37' W 008°57'110.2
2018-Feb-16 12:29N 36°37' W 008°56'610.4
2018-Feb-16 11:52N 36°37' W 008°48'510.4
2018-Feb-16 11:23N 36°36' W 008°42'410.5
2018-Feb-16 10:59N 36°36' W 008°37'2910.5
2018-Feb-16 08:11N 36°34' W 008°00'210.2
2018-Feb-16 08:00N 36°33' W 007°58'12010.5
2018-Feb-15 20:35N 35°58' W 005°36'110.6
2018-Feb-15 20:27N 35°58' W 005°34'4 9.6
2018-Feb-15 20:00N 35°60' W 005°29'4 8.7
2018-Feb-15 19:30N 36°01' W 005°24'510.2
2018-Feb-15 19:00N 36°02' W 005°18'5 9.9
2018-Feb-15 18:31N 36°04' W 005°12'2 0.3
2018-Feb-15 09:27N 36°04' W 005°15'511.1
2018-Feb-15 09:00N 36°03' W 005°21'1 2.7
2018-Feb-15 08:31N 36°04' W 005°22'1 1.6
2018-Feb-15 08:00N 36°05' W 005°23'0 0.5
2018-Feb-15 07:30N 36°04' W 005°23'0 0.7
2018-Feb-15 07:01N 36°04' W 005°23'2 3.1
2018-Feb-15 06:30N 36°03' W 005°21'2 4.6
2018-Feb-15 06:00N 36°03' W 005°18'3 5.4
2018-Feb-15 05:30N 36°02' W 005°15'3 6.5
2018-Feb-15 05:00N 36°02' W 005°11'4 6.7
2018-Feb-15 04:22N 36°02' W 005°06'  
Track history (hours):
 
Tides and Currents Weather Stations Pressure Air Temp Water Temp Dewpoint Dewpoint Depression Visibility Wind Speed Wind Dir Waves Ship Positions

Clean Ocean

Last reported at 2018-Feb-23 19:12 UTC. Time now 2018-Feb-24 10:12 UTC.
Position N 37°41' W 009°53'.

Length 289 m; draft 11.8 m.

Type: Tanker. MMSI: 538005350.

Date/timePositionNaut miles runAvg speedWind from/ knotsBaromVisibWave heightAir tempDewpointWater temp
2018-Feb-23 19:12N 37°41' W 009°53'315.8
2018-Feb-23 19:00N 37°44' W 009°54'815.4
2018-Feb-23 18:30N 37°52' W 009°56'815.3
2018-Feb-23 18:00N 37°59' W 009°58'815.3
2018-Feb-23 17:31N 38°07' W 010°01'915.7
2018-Feb-23 16:57N 38°15' W 010°05'715.8
2018-Feb-23 16:30N 38°21' W 010°08'816.1
2018-Feb-23 15:59N 38°30' W 010°11'1116.2
2018-Feb-23 15:20N 38°40' W 010°13'515.9
2018-Feb-23 15:00N 38°45' W 010°13'816.0
2018-Feb-23 14:30N 38°53' W 010°13'816.4
2018-Feb-23 14:00N 39°01' W 010°13'816.1
2018-Feb-23 13:30N 39°09' W 010°12'56114.3
2018-Feb-21 22:22N 46°53' W 002°60'1016.0
2018-Feb-21 21:43N 46°57' W 002°45'415.5
2018-Feb-21 21:28N 46°59' W 002°41'715.6
2018-Feb-21 21:00N 47°03' W 002°32'713.3
2018-Feb-21 20:30N 47°06' W 002°23'3 6.3
2018-Feb-21 20:00N 47°08' W 002°20'510.6
2018-Feb-21 19:30N 47°13' W 002°17'510.2
2018-Feb-21 19:00N 47°16' W 002°11'2 4.5
2018-Feb-21 18:30N 47°18' W 002°09'0 0.0
2018-Feb-21 15:47N 47°18' W 002°09'0 0.0
2018-Feb-21 15:29N 47°18' W 002°09'0 0.0
2018-Feb-21 11:17N 47°18' W 002°09'0 0.0
2018-Feb-21 09:53N 47°18' W 002°09'0 0.0
2018-Feb-21 08:29N 47°18' W 002°09'0 0.0
2018-Feb-21 07:59N 47°18' W 002°09'0 0.0
2018-Feb-21 05:41N 47°18' W 002°09'0 0.0
2018-Feb-21 04:53N 47°18' W 002°09'0 0.0
2018-Feb-21 04:29N 47°18' W 002°09'0 0.0
2018-Feb-21 03:59N 47°18' W 002°09'0 0.0
2018-Feb-21 03:29N 47°18' W 002°09'0 0.0
2018-Feb-21 02:59N 47°18' W 002°09'0 0.0
2018-Feb-21 02:29N 47°18' W 002°09'0 0.0
2018-Feb-21 01:59N 47°18' W 002°09'0 0.0
2018-Feb-21 01:29N 47°18' W 002°09'0 0.0
2018-Feb-21 00:59N 47°18' W 002°09'0 0.0
2018-Feb-21 00:23N 47°18' W 002°09'0 0.0
2018-Feb-20 23:59N 47°18' W 002°09'0 0.0
2018-Feb-20 23:29N 47°18' W 002°09'0 0.0
2018-Feb-20 22:59N 47°18' W 002°09'0 0.0
2018-Feb-20 21:53N 47°18' W 002°09'0 0.0
2018-Feb-20 21:23N 47°18' W 002°09'0 0.0
2018-Feb-20 20:53N 47°18' W 002°09'0 0.0
2018-Feb-20 20:29N 47°18' W 002°09'0 0.0
2018-Feb-20 17:17N 47°18' W 002°09'0 0.0
2018-Feb-20 16:53N 47°18' W 002°09'0 0.0
2018-Feb-20 16:17N 47°18' W 002°09'0 0.0
2018-Feb-20 15:47N 47°18' W 002°09'0 0.0
2018-Feb-20 15:29N 47°18' W 002°09'0 0.0
2018-Feb-20 12:47N 47°18' W 002°09'0 0.0
2018-Feb-20 12:23N 47°18' W 002°09'0 0.0
2018-Feb-20 11:47N 47°18' W 002°09'0 0.0
2018-Feb-20 11:23N 47°18' W 002°09'0 0.0
2018-Feb-20 10:59N 47°18' W 002°09'0 0.0
2018-Feb-20 10:29N 47°18' W 002°09'0 0.0
2018-Feb-20 09:47N 47°18' W 002°09'0 0.0
2018-Feb-20 00:29N 47°18' W 002°09'0 0.0
2018-Feb-19 21:11N 47°18' W 002°09'0 0.0
2018-Feb-19 20:53N 47°18' W 002°09'0 0.0
2018-Feb-19 19:35N 47°18' W 002°09'0 0.0
2018-Feb-19 19:23N 47°18' W 002°09'0 0.0
2018-Feb-19 16:59N 47°18' W 002°09'0 0.2
2018-Feb-19 16:30N 47°18' W 002°08'1 3.0
2018-Feb-19 16:00N 47°17' W 002°10'5 9.2
2018-Feb-19 15:30N 47°14' W 002°15'611.2
2018-Feb-19 15:00N 47°09' W 002°19'3 6.9
2018-Feb-19 14:30N 47°07' W 002°23'1 2.6
2018-Feb-19 14:00N 47°06' W 002°24'2 4.7
2018-Feb-19 13:30N 47°04' W 002°27'3 5.2
2018-Feb-19 13:00N 47°03' W 002°30'3 5.4
2018-Feb-19 12:31N 47°02' W 002°33'3 5.5
2018-Feb-19 12:00N 47°00' W 002°37'3 5.2
2018-Feb-19 11:30N 46°59' W 002°40'4 8.3
2018-Feb-19 10:59N 46°57' W 002°46'  
2018-Feb-17 03:19N 39°17' W 009°57'413.1
2018-Feb-17 03:01N 39°13' W 009°57'612.8
2018-Feb-17 02:31N 39°07' W 009°57'612.8
2018-Feb-17 02:00N 39°00' W 009°57'612.9
2018-Feb-17 01:31N 38°54' W 009°57'713.1
2018-Feb-17 00:59N 38°47' W 009°57'613.0
2018-Feb-17 00:31N 38°41' W 009°57'612.9
2018-Feb-17 00:00N 38°35' W 009°54'612.6
2018-Feb-16 23:31N 38°29' W 009°52'712.4
2018-Feb-16 22:59N 38°22' W 009°49'612.1
2018-Feb-16 22:30N 38°17' W 009°48'611.9
2018-Feb-16 22:00N 38°11' W 009°46'612.6
2018-Feb-16 21:30N 38°05' W 009°45'612.7
2018-Feb-16 21:00N 37°58' W 009°43'812.8
2018-Feb-16 20:22N 37°51' W 009°41'512.3
2018-Feb-16 20:00N 37°46' W 009°40'612.7
2018-Feb-16 19:30N 37°40' W 009°39'7110.2
2018-Feb-16 12:32N 36°37' W 008°57'110.2
2018-Feb-16 12:29N 36°37' W 008°56'610.4
2018-Feb-16 11:52N 36°37' W 008°48'510.4
2018-Feb-16 11:23N 36°36' W 008°42'410.5
2018-Feb-16 10:59N 36°36' W 008°37'2910.5
2018-Feb-16 08:11N 36°34' W 008°00'210.2
2018-Feb-16 08:00N 36°33' W 007°58'12010.5
2018-Feb-15 20:35N 35°58' W 005°36'110.6
2018-Feb-15 20:27N 35°58' W 005°34'4 9.6
2018-Feb-15 20:00N 35°60' W 005°29'4 8.7
2018-Feb-15 19:30N 36°01' W 005°24'510.2
2018-Feb-15 19:00N 36°02' W 005°18'5 9.9
2018-Feb-15 18:31N 36°04' W 005°12'2 0.3
2018-Feb-15 09:27N 36°04' W 005°15'511.1
2018-Feb-15 09:00N 36°03' W 005°21'1 2.7
2018-Feb-15 08:31N 36°04' W 005°22'1 1.6
2018-Feb-15 08:00N 36°05' W 005°23'0 0.5
2018-Feb-15 07:30N 36°04' W 005°23'0 0.7
2018-Feb-15 07:01N 36°04' W 005°23'2 3.1
2018-Feb-15 06:30N 36°03' W 005°21'2 4.6
2018-Feb-15 06:00N 36°03' W 005°18'3 5.4
2018-Feb-15 05:30N 36°02' W 005°15'3 6.5
2018-Feb-15 05:00N 36°02' W 005°11'4 6.7
2018-Feb-15 04:22N 36°02' W 005°06'  

Dump ship's entire track history